Newark, OH (43055)

5:59 AM EDT on July 05, 2015 (GMT -0400)
Up on Horns Hill | | Change Station
CLOSE
Current Station
Personal Weather Station
Location: Newark, OH
Elevation: 1030 ft
Nearby Weather Stations

Elev 1030 ft 40.13 °N, 82.40 °W | Updated 7 seconds ago

Clear
Clear
56.1 °F
Feels Like 56.1 °F
N
0.0
Wind Variable Wind from ESE
Gusts 0.0 mph

Today
High -- | Low -- °F
--% Chance of Precip.
Yesterday
High -- | Low -- °F
Precip. -- in
6:05 AM 9:01 PM
Waning Gibbous, 86% visible
Pressure 30.10 in
Visibility 0.5 miles
Clouds Clear
Dew Point 56 °F
Humidity 99%
Rainfall 0.00 in
Snow Depth Not available.
UV 0 out of 12
Pollen 3.50 out of 12
Air Quality Not available.
Flu Activity Not available.
METAR KVTA 050954Z AUTO 00000KT 1/2SM FG CLR 13/13 A3011 RMK AO2 SLP191 T01330128

More Conditions Fewer Conditions

Pressure 30.10 in
Visibility 0.5 miles
Clouds Clear
Dew Point 56 °F
Humidity 99%
Rainfall 0.00 in
Snow Depth Not available.
UV 0 out of 12
Pollen 3.50 out of 12
Air Quality Not available.
Flu Activity Not available.
METAR KVTA 050954Z AUTO 00000KT 1/2SM FG CLR 13/13 A3011 RMK AO2 SLP191 T01330128

More Conditions Fewer Conditions

10-Day Weather Forecast

×

Almanac

Astronomy

Jul. 05, 2015 Rise Set
Actual Time
Civil Twilight
Nautical Twilight
Astronomical Twilight
Moon
Length of Visible Light
Length of Day
Tomorrow will be .
, % of the Moon is Illuminated

Today's Extremes

State Highs State Lows

Community

WunderPhotos

Upload Photos

1,835,218 photos uploaded!

WunderBlogs® & News

Nearby

Air Quality

  Air Quality AQ Index Pollutant
Not available.

Snow Depth

Station Depth Elevation

Earthquake Activity

City Distance Mag. Time & Date
Minimum magnitude displayed is 2.5.

Coastal Water Temperatures

Place Temperature

Stations

Nearby Weather Stations

Station Location Temp. Windchill Dew Point Humidity Wind Precip. Elev Updated Type